createdAt,value
2023-03-18T00:00:40.581Z,8.02
2023-03-18T00:04:40.333Z,7.3
2023-03-18T00:08:41.130Z,9.9
2023-03-18T00:12:40.451Z,7.25
2023-03-18T00:16:40.609Z,8.98
2023-03-18T00:20:40.288Z,10.3
2023-03-18T00:24:40.694Z,8.73
2023-03-18T00:28:40.507Z,8.02
2023-03-18T00:32:40.755Z,7.9
2023-03-18T00:36:40.607Z,7.32
2023-03-18T00:40:40.789Z,6.4
2023-03-18T00:44:39.837Z,9.65
2023-03-18T00:48:41.227Z,9.8
2023-03-18T00:52:40.549Z,8.1
2023-03-18T00:56:41.239Z,6.07
2023-03-18T01:00:40.589Z,6.47
2023-03-18T01:04:39.687Z,8.93
2023-03-18T01:08:40.551Z,6
2023-03-18T01:12:40.584Z,12.3
2023-03-18T01:16:40.728Z,4.75
2023-03-18T01:20:40.532Z,6.45
2023-03-18T01:24:40.570Z,5.57
2023-03-18T01:28:40.841Z,7.28
2023-03-18T01:32:40.674Z,8.05
2023-03-18T01:36:40.472Z,8.05
2023-03-18T01:40:40.544Z,7.18
2023-03-18T01:44:40.602Z,11.57
2023-03-18T01:48:40.747Z,11.3
2023-03-18T01:52:40.593Z,16.1
2023-03-18T01:56:40.376Z,9.2
2023-03-18T02:00:40.674Z,7.03
2023-03-18T02:04:40.618Z,5.93
2023-03-18T02:08:40.930Z,7.68
2023-03-18T02:12:40.730Z,5.87
2023-03-18T02:16:40.486Z,9.1
2023-03-18T02:20:40.769Z,7.82
2023-03-18T02:24:40.274Z,9.02
2023-03-18T02:28:40.691Z,8.27
2023-03-18T02:32:40.633Z,7.65
2023-03-18T02:36:40.462Z,7.78
2023-03-18T02:40:40.703Z,5.72
2023-03-18T02:44:40.320Z,8.6
2023-03-18T02:48:40.714Z,6.68
2023-03-18T02:52:40.830Z,10.02
2023-03-18T02:56:40.472Z,4.35
2023-03-18T03:00:40.723Z,5.47
2023-03-18T03:04:40.474Z,7.05
2023-03-18T03:08:40.686Z,7.68
2023-03-18T03:12:40.726Z,6
2023-03-18T03:16:40.360Z,5.6
2023-03-18T03:20:39.541Z,8.75
2023-03-18T03:24:40.310Z,7.22
2023-03-18T03:28:39.593Z,6.72
2023-03-18T03:32:40.643Z,6.25
2023-03-18T03:36:40.325Z,9.8
2023-03-18T03:40:40.627Z,9
2023-03-18T03:44:40.539Z,9.75
2023-03-18T03:48:40.531Z,8.98
2023-03-18T03:52:40.621Z,7.75
2023-03-18T03:56:40.677Z,8.13
2023-03-18T04:00:40.333Z,6.15
2023-03-18T04:04:40.537Z,8.35
2023-03-18T04:08:40.964Z,6.72
2023-03-18T04:12:40.508Z,8.57
2023-03-18T04:16:40.588Z,6.97
2023-03-18T04:20:40.602Z,7.12
2023-03-18T04:24:40.503Z,11.8
2023-03-18T04:28:41.188Z,11.15
2023-03-18T04:32:40.572Z,8.25
2023-03-18T04:36:40.277Z,6.78
2023-03-18T04:40:40.603Z,8.27
2023-03-18T04:44:40.788Z,7.85
2023-03-18T04:48:41.105Z,8.93
2023-03-18T04:52:41.282Z,7.45
2023-03-18T04:56:40.506Z,13.07
2023-03-18T05:00:40.628Z,9.95
2023-03-18T05:04:40.428Z,8.15
2023-03-18T05:08:40.479Z,6.3
2023-03-18T05:12:40.495Z,7.22
2023-03-18T05:16:40.839Z,8.1
2023-03-18T05:20:39.415Z,6.35
2023-03-18T05:24:40.744Z,7.7
2023-03-18T05:28:40.550Z,6.87
2023-03-18T05:32:40.743Z,5.18
2023-03-18T05:36:40.355Z,6.85
2023-03-18T05:40:39.501Z,7.72
2023-03-18T05:44:40.575Z,9.4
2023-03-18T05:48:41.071Z,10.9
2023-03-18T05:52:40.458Z,5.9
2023-03-18T05:56:40.577Z,7.05
2023-03-18T06:00:40.620Z,6.72
2023-03-18T06:04:40.496Z,7.12
2023-03-18T06:08:40.481Z,9.75
2023-03-18T06:12:40.848Z,3.37
2023-03-18T06:16:40.456Z,8.73
2023-03-18T06:20:40.530Z,8.32
2023-03-18T06:24:40.550Z,5.22
2023-03-18T06:28:40.423Z,8.63
2023-03-18T06:32:40.808Z,7.75
2023-03-18T06:36:40.347Z,7.45
2023-03-18T06:40:39.679Z,11.48
2023-03-18T06:44:40.615Z,5.12
2023-03-18T06:48:40.607Z,6.3
2023-03-18T06:52:40.832Z,7.35
2023-03-18T06:56:40.601Z,6.18
2023-03-18T07:00:39.757Z,7.3
2023-03-18T07:04:41.276Z,6.35
2023-03-18T07:08:39.818Z,7.55
2023-03-18T07:12:40.873Z,12.27
2023-03-18T07:16:40.570Z,6.7
2023-03-18T07:20:39.293Z,6.93
2023-03-18T07:24:40.667Z,7.68
2023-03-18T07:28:39.520Z,5.95
2023-03-18T07:32:40.725Z,5.12
2023-03-18T07:36:40.671Z,13.52
2023-03-18T07:40:39.612Z,5.95
2023-03-18T07:44:40.845Z,10.5
2023-03-18T07:48:40.379Z,9.4
2023-03-18T07:52:40.979Z,5.12
2023-03-18T07:56:40.512Z,6.68
2023-03-18T08:00:40.923Z,5.8
2023-03-18T08:04:40.814Z,10.68
2023-03-18T08:08:40.508Z,9.4
2023-03-18T08:12:52.197Z,7.35
2023-03-18T08:16:41.014Z,10.52
2023-03-18T08:20:41.219Z,8.43
2023-03-18T08:24:40.528Z,6.18
2023-03-18T08:28:40.575Z,5.97
2023-03-18T08:32:40.631Z,6.3
2023-03-18T08:36:40.708Z,5.2
2023-03-18T08:40:40.679Z,7.2
2023-03-18T08:44:40.658Z,8.9
2023-03-18T08:48:40.472Z,8.48
2023-03-18T08:52:40.506Z,8.7
2023-03-18T08:56:40.622Z,5.97
2023-03-18T09:00:40.721Z,6.75
2023-03-18T09:04:41.260Z,7.95
2023-03-18T09:08:40.536Z,7.57
2023-03-18T09:12:40.525Z,5.28
2023-03-18T09:16:41.283Z,5.57
2023-03-18T09:20:40.756Z,6.37
2023-03-18T09:24:40.860Z,8
2023-03-18T09:28:40.561Z,9.32
2023-03-18T09:32:40.344Z,7.53
2023-03-18T09:36:40.384Z,7.6
2023-03-18T09:40:39.987Z,9.05
2023-03-18T09:44:40.730Z,6.75
2023-03-18T09:48:40.688Z,8.63
2023-03-18T09:52:40.674Z,7.07
2023-03-18T09:56:40.606Z,7.45
2023-03-18T10:00:40.747Z,8.85
2023-03-18T10:04:40.605Z,5.62
2023-03-18T10:08:40.526Z,8.27
2023-03-18T10:12:40.522Z,9.7
2023-03-18T10:16:40.737Z,8.45
2023-03-18T10:20:40.606Z,8.48
2023-03-18T10:24:40.464Z,8.65
2023-03-18T10:28:40.820Z,5.47
2023-03-18T10:32:49.539Z,8.13
2023-03-18T10:36:40.631Z,7.82
2023-03-18T10:40:40.337Z,7.45
2023-03-18T10:44:40.500Z,6.28
2023-03-18T10:48:40.915Z,8.4
2023-03-18T10:52:40.585Z,7.62
2023-03-18T10:56:40.493Z,9.7
2023-03-18T11:00:40.507Z,10.55
2023-03-18T11:04:40.694Z,7.55
2023-03-18T11:08:40.777Z,10.27
2023-03-18T11:12:40.971Z,8.75
2023-03-18T11:16:40.610Z,12.1
2023-03-18T11:20:40.355Z,9.07
2023-03-18T11:24:40.832Z,6.2
2023-03-18T11:28:40.939Z,7.05
2023-03-18T11:32:40.625Z,8.55
2023-03-18T11:36:40.606Z,5.18
2023-03-18T11:40:40.581Z,8.32
2023-03-18T11:44:40.799Z,8.73
2023-03-18T11:48:40.515Z,8.43
2023-03-18T11:52:40.569Z,6.3
2023-03-18T11:56:40.557Z,6.8
2023-03-18T12:00:41.091Z,8.95
2023-03-18T12:04:40.628Z,10.23
2023-03-18T12:08:40.657Z,7.22
2023-03-18T12:12:40.563Z,8.32
2023-03-18T12:16:40.468Z,8.85
2023-03-18T12:20:40.535Z,5.22
2023-03-18T12:24:40.546Z,6.05
2023-03-18T12:28:40.544Z,4.82
2023-03-18T12:32:40.636Z,6.32
2023-03-18T12:36:40.316Z,7.1
2023-03-18T12:40:40.738Z,6.53
2023-03-18T12:44:40.444Z,4.9
2023-03-18T12:48:44.581Z,11.45
2023-03-18T12:52:40.572Z,10.73
2023-03-18T12:56:40.566Z,6.68
2023-03-18T13:00:40.652Z,10.52
2023-03-18T13:04:40.482Z,10.65
2023-03-18T13:08:40.576Z,6.53
2023-03-18T13:12:40.542Z,6.72
2023-03-18T13:16:40.669Z,10.13
2023-03-18T13:20:40.877Z,5.55
2023-03-18T13:24:40.604Z,9.5
2023-03-18T13:28:40.745Z,6.85
2023-03-18T13:32:40.680Z,5.95
2023-03-18T13:36:40.465Z,6.7
2023-03-18T13:40:42.368Z,5.8
2023-03-18T13:44:40.905Z,8.6
2023-03-18T13:48:40.538Z,10.68
2023-03-18T13:52:40.674Z,7.12
2023-03-18T13:56:40.528Z,9.77
2023-03-18T14:00:40.656Z,7.22
2023-03-18T14:04:40.509Z,7.55
2023-03-18T14:08:40.542Z,14.98
2023-03-18T14:12:40.600Z,6.5
2023-03-18T14:16:40.621Z,7.47
2023-03-18T14:20:40.954Z,8.95
2023-03-18T14:24:40.499Z,6.93
2023-03-18T14:28:40.541Z,6.35
2023-03-18T14:32:40.621Z,16.4
2023-03-18T14:36:40.850Z,8.93
2023-03-18T14:40:40.516Z,6.3
2023-03-18T14:44:40.669Z,5.57
2023-03-18T14:48:40.555Z,6.95
2023-03-18T14:52:40.555Z,6.9
2023-03-18T14:56:40.382Z,7.57
2023-03-18T15:00:40.491Z,9.07
2023-03-18T15:04:40.800Z,4.45
2023-03-18T15:08:48.202Z,12.15
2023-03-18T15:12:40.551Z,7.35
2023-03-18T15:16:39.576Z,6.53
2023-03-18T15:20:39.641Z,7
2023-03-18T15:24:40.659Z,5.87
2023-03-18T15:28:40.541Z,7.87
2023-03-18T15:32:40.445Z,4.7
2023-03-18T15:36:40.682Z,5.55
2023-03-18T15:40:40.465Z,8.23
2023-03-18T15:44:41.034Z,9.75
2023-03-18T15:48:40.510Z,7.62
2023-03-18T15:52:40.603Z,9.15
2023-03-18T15:56:40.597Z,6.97
2023-03-18T16:00:40.503Z,9.65
2023-03-18T16:04:41.143Z,8.77
2023-03-18T16:08:40.600Z,9.95
2023-03-18T16:12:40.458Z,6.72
2023-03-18T16:16:40.557Z,10.57
2023-03-18T16:20:40.884Z,8.27
2023-03-18T16:24:40.756Z,9.2
2023-03-18T16:28:42.205Z,9.18
2023-03-18T16:32:41.097Z,8.57
2023-03-18T16:36:40.559Z,10.98
2023-03-18T16:40:40.961Z,9.73
2023-03-18T16:44:40.609Z,11.15
2023-03-18T16:48:40.148Z,8.32
2023-03-18T16:52:40.538Z,9.05
2023-03-18T16:56:40.688Z,9.48
2023-03-18T17:00:40.809Z,10.55
2023-03-18T17:04:40.936Z,15.43
2023-03-18T17:08:40.466Z,9.23
2023-03-18T17:12:40.568Z,7.4
2023-03-18T17:16:40.396Z,7.97
2023-03-18T17:20:40.533Z,10.23
2023-03-18T17:24:40.540Z,7.78
2023-03-18T17:28:40.407Z,9.18
2023-03-18T17:32:39.402Z,9.38
2023-03-18T17:36:40.404Z,10.93
2023-03-18T17:40:40.545Z,7.3
2023-03-18T17:44:40.523Z,11
2023-03-18T17:48:40.541Z,9.9
2023-03-18T17:52:40.464Z,7.1
2023-03-18T17:56:40.573Z,8.73
2023-03-18T18:00:41.019Z,8.88
2023-03-18T18:04:40.600Z,14.85
2023-03-18T18:08:41.292Z,8.5
2023-03-18T18:12:41.082Z,13.57
2023-03-18T18:16:40.307Z,10.38
2023-03-18T18:20:40.559Z,8.57
2023-03-18T18:24:40.648Z,10.65
2023-03-18T18:28:40.706Z,13.73
2023-03-18T18:32:40.436Z,12.93
2023-03-18T18:36:40.387Z,13.38
2023-03-18T18:40:40.493Z,11.5
2023-03-18T18:44:40.543Z,16.05
2023-03-18T18:48:40.099Z,14.5
2023-03-18T18:52:41.066Z,17.75
2023-03-18T18:56:40.353Z,15
2023-03-18T19:00:39.857Z,19.27
2023-03-18T19:04:39.508Z,14.9
2023-03-18T19:08:40.604Z,14.05
2023-03-18T19:12:40.505Z,14.25
2023-03-18T19:16:40.582Z,15.8
2023-03-18T19:20:40.526Z,16.75
2023-03-18T19:24:40.812Z,16.33
2023-03-18T19:28:47.635Z,15.13
2023-03-18T19:32:40.929Z,12.02
2023-03-18T19:36:40.612Z,16.75
2023-03-18T19:40:40.586Z,17.52
2023-03-18T19:44:40.673Z,15.5
2023-03-18T19:48:41.301Z,16.1
2023-03-18T19:52:40.616Z,17.55
2023-03-18T19:56:40.571Z,16.75
2023-03-18T20:00:40.875Z,20.77
2023-03-18T20:04:40.578Z,16.1
2023-03-18T20:08:40.697Z,17.95
2023-03-18T20:12:40.564Z,20.85
2023-03-18T20:16:40.630Z,22.35
2023-03-18T20:20:39.365Z,19
2023-03-18T20:24:40.346Z,18.2
2023-03-18T20:28:41.978Z,19.23
2023-03-18T20:32:40.638Z,15.68
2023-03-18T20:36:40.553Z,22.4
2023-03-18T20:40:40.530Z,17.15
2023-03-18T20:44:40.571Z,20.88
2023-03-18T20:48:40.523Z,18.05
2023-03-18T20:52:42.981Z,15
2023-03-18T20:56:40.563Z,22.7
2023-03-18T21:00:40.645Z,19.62
2023-03-18T21:04:40.600Z,18.58
2023-03-18T21:08:40.523Z,23.12
2023-03-18T21:12:40.035Z,21.23
2023-03-18T21:16:40.313Z,20.3
2023-03-18T21:20:40.641Z,20.83
2023-03-18T21:24:40.307Z,21.27
2023-03-18T21:28:40.271Z,20.55
2023-03-18T21:32:40.658Z,21.33
2023-03-18T21:36:40.682Z,19.5
2023-03-18T21:40:40.330Z,22.45
2023-03-18T21:44:40.555Z,23.5
2023-03-18T21:48:40.550Z,23.6
2023-03-18T21:52:40.507Z,18.95
2023-03-18T21:56:40.254Z,17.77
2023-03-18T22:00:40.565Z,18.42
2023-03-18T22:04:40.684Z,22.15
2023-03-18T22:08:40.071Z,20.73
2023-03-18T22:12:40.474Z,21.73
2023-03-18T22:16:40.920Z,21.8
2023-03-18T22:20:39.699Z,16.67
2023-03-18T22:24:40.545Z,18.23
2023-03-18T22:28:39.714Z,19.73
2023-03-18T22:32:40.685Z,26.55
2023-03-18T22:36:39.361Z,21.85
2023-03-18T22:40:40.382Z,20.62
2023-03-18T22:44:39.915Z,19.85
2023-03-18T22:48:40.271Z,19
2023-03-18T22:52:40.452Z,29.15
2023-03-18T22:56:39.582Z,16.62
2023-03-18T23:04:40.359Z,22.6
2023-03-18T23:08:40.399Z,24.8
2023-03-18T23:12:39.366Z,19.23
2023-03-18T23:16:41.370Z,16.37
2023-03-18T23:20:40.878Z,20.73
2023-03-18T23:24:39.803Z,26.95
2023-03-18T23:28:44.833Z,21.75
2023-03-18T23:32:40.509Z,18.08
2023-03-18T23:36:40.514Z,19.8
2023-03-18T23:40:40.807Z,21.92
2023-03-18T23:44:40.405Z,21.42
2023-03-18T23:48:40.475Z,26.95
2023-03-18T23:52:40.614Z,19.4
2023-03-18T23:56:40.616Z,25.08
